logo
Search for airport 
image banner adimage banner adimage banner ad
image banner ad

SVLE - La Esmeralda (Militar)

Located in La Esmeralda, Venezuela

ICAO - SVLE, IATA -

Data provided by Airmate  

General information

Coordinates: N3°10'19" W65°32'26"
Elevation is 380 feet MSL.
Magnetic variation is -13° East
View others Airports in Zulia

Operational data

Special qualification required
Current time UTC:
Current local time:
Weather at : - ( 0 km )
METAR: PARS 191321Z AUTO 00000KT 10SM -RA SCT022 OVC048 11/11 A2992 RMK AO2 P0001 $
View NOTAMs / SUP AIP / TFR affecting this airport [VIEW]
Communications frequencies: [VIEW]

Runways:

RWY identifierQFULength (ft)Width (ft)SurfaceLDA (ft)
14124°748486ASPH7526
32304°748486ASPH7526

Airport contact information

Address: La Esmeralda Venezuela

Satellite view of SVLE